Skip Navigation Links
NOAA logo - Click to go to the NOAA homepage
NOAA's National Weather Service
Alaska Aviation Weather Unit
  NWS logo - Click to go to the NWS homepage
Left Navbar Graphic     21 AKDT = 05 GMT

   
NOAA is celebrating 200 years of science, service, and stewardship. Visit the NOAA 200th celebration Web site to learn more.
USA.gov is the U.S. Government's official Web portal to all Federal, state and local government Web resources and services.
Facebook
NWS on Facebook

Important Change Regarding the AAWU Web Presence

 

Over the last several months, the AAWU has been working to navigate its webpages to a nationally supported server. Security, as well as other needs, have necessitated the change.  In the process, we have made an effort to enhance the functionality of our website, as well as some of our products. As of June 27, 2017, aawu.arh.noaa.gov will be discontinued. The new AAWU web address is weather.gov/aawu. It is now live and will run in-parallel with the old site until it is discontinued. Please send any feedback or questions regarding the new webpages to nws.ar.aawu.webauthors@noaa.gov.  Thank you for your patience during this time of transition.
AAWU Home :: Display TAF Add Bookmark
TAF PASD 242335Z 2500/2524 21010KT P6SM SCT025 OVC040
     FM250600 19010KT P6SM VCSH BKN015 OVC025
     FM251800 15011KT 4SM -RA BR BKN008 OVC015
      AMD LTD TO CLD VIS AND WIND=

METAR PASD 242356Z 21009KT 10SM FEW025 SCT032 BKN040 11/05 A3031 RMK AO2 SLP265 DA T01110050 10122 20106 58008 $= METAR PASD 250056Z 21011KT 10SM FEW024 SCT031 BKN045 12/06 A3029 RMK AO2 SLP260 DA T01170056 $= METAR PASD 250156Z 20011KT 10SM FEW022 SCT030 BKN044 11/05 A3028 RMK AO2 SLP256 DA T01110050 $= METAR PASD 250256Z 20012KT 10SM FEW018 SCT027 BKN035 11/06 A3027 RMK AO2 SLP253 LAST DA T01060056 56012 $= METAR PASD 250356Z 20009KT 10SM FEW018 SCT027 BKN035 11/06 A3026 RMK AO2 SLP250 LAST DA T01060061 $= SPECI PASD 250403Z 20010KT 10SM OVC025 11/06 A3026 RMK AO2 $= METAR PASD 250456Z 20012KT 10SM BKN027 OVC095 10/06 A3024 RMK AO2 SLP243 T01000061 $=
 Alaska TAF Map

NOAA's National Weather Service
Alaska Aviation Weather Unit
6930 Sand Lake Road
Anchorage, AK 99502-1845
Disclaimer
Credits
Glossary
Privacy Policy
About Us
Career Opportunities
Contact AAWU Internet Services Site last modified: April, 17th 2012